Time;durP1;ratioP1;P1;durP2;ratioP2;P2;SDS_P1;SDS_P2;PMS_P1;PMS_P2;Temp;Humidity;BMP_temperature;BMP_pressure;BME280_temperature;BME280_humidity;BME280_pressure;Samples;Min_cycle;Max_cycle;Signal;HPM_P1;HPM_P2
2023/06/20 00:02:07;;;;;;;;;;;;;;;23.54;58.00;100868.06;4981678;28;4487;-68
2023/06/20 00:04:33;;;;;;;;;;;;;;;23.52;58.11;100870.88;4985633;28;4199;-67
2023/06/20 00:07:00;;;;;;;;;;;;;;;23.52;57.96;100876.66;4985640;28;4146;-67
2023/06/20 00:09:26;;;;;;;;;;;;;;;23.51;57.95;100869.44;4984072;28;3974;-69
2023/06/20 00:11:53;;;;;;;;;;;;;;;23.49;58.11;100872.25;4986297;28;4793;-68
2023/06/20 00:14:19;;;;;;;;;;;;;;;23.50;57.82;100862.16;4983500;28;3959;-69
2023/06/20 00:16:46;;;;;;;;;;;;;;;23.48;58.03;100864.97;4984000;28;4131;-69
2023/06/20 00:19:12;;;;;;;;;;;;;;;23.47;57.92;100857.72;4987605;28;4147;-69
2023/06/20 00:21:39;;;;;;;;;;;;;;;23.48;57.95;100856.31;4986727;28;4152;-69
2023/06/20 00:24:09;;;;;;;;;;;;;;;23.45;57.82;100851.88;4984883;28;4158;-69
2023/06/20 00:26:37;;;;;;;;;;;;;;;23.46;58.08;100851.22;4981530;28;4318;-69
2023/06/20 00:29:03;;;;;;;;;;;;;;;23.45;58.15;100843.94;4983725;28;5507;-69
2023/06/20 00:31:30;;;;;;;;;;;;;;;23.45;58.09;100837.41;4984429;28;4104;-69
2023/06/20 00:33:57;;;;;;;;;;;;;;;23.44;58.01;100847.50;4983164;28;4152;-68
2023/06/20 00:36:27;;;;;;;;;;;;;;;23.43;57.93;100852.53;4997692;28;4338;-69
2023/06/20 00:38:56;;;;;;;;;;;;;;;23.40;58.11;100843.06;4987765;28;4353;-69
2023/06/20 00:41:22;;;;;;;;;;;;;;;23.41;57.92;100838.78;4981235;28;4172;-69
2023/06/20 00:43:49;;;;;;;;;;;;;;;23.40;58.04;100837.28;4983838;28;4101;-69
2023/06/20 00:46:19;;;;;;;;;;;;;;;23.40;58.11;100842.31;4984649;28;5255;-69
2023/06/20 00:48:49;;;;;;;;;;;;;;;23.39;57.94;100835.09;4993045;28;4200;-67
2023/06/20 00:51:15;;;;;;;;;;;;;;;23.37;57.90;100832.84;4983529;28;4078;-69
2023/06/20 00:53:42;;;;;;;;;;;;;;;23.38;57.92;100834.31;4996305;28;4049;-69
2023/06/20 00:56:09;;;;;;;;;;;;;;;23.39;57.85;100838.69;4983940;28;4403;-69
2023/06/20 00:58:36;;;;;;;;;;;;;;;23.38;58.10;100825.66;4984265;28;4215;-68
2023/06/20 01:01:03;;;;;;;;;;;;;;;23.38;58.06;100822.03;4981955;28;4213;-68
2023/06/20 01:03:29;;;;;;;;;;;;;;;23.39;57.96;100824.25;4981526;28;4215;-68
2023/06/20 01:06:04;;;;;;;;;;;;;;;23.39;58.15;100823.53;4983616;28;4188;-68
2023/06/20 01:08:36;;;;;;;;;;;;;;;23.37;58.19;100824.19;4981380;28;4041;-68
2023/06/20 01:11:11;;;;;;;;;;;;;;;23.36;58.13;100819.06;4981824;28;4168;-68
2023/06/20 01:13:46;;;;;;;;;;;;;;;23.35;58.04;100821.22;5001036;28;4286;-68
2023/06/20 01:16:18;;;;;;;;;;;;;;;23.33;58.03;100815.38;4989852;28;4165;-68
2023/06/20 01:18:46;;;;;;;;;;;;;;;23.32;58.42;100813.16;4966468;28;4100;-68
2023/06/20 01:21:14;;;;;;;;;;;;;;;23.34;58.25;100813.22;4984121;28;4169;-69
2023/06/20 01:23:53;;;;;;;;;;;;;;;23.31;58.31;100814.56;4992884;28;4377;-68
2023/06/20 01:26:31;;;;;;;;;;;;;;;23.32;58.39;100808.13;4974248;28;5356;-68
2023/06/20 01:28:59;;;;;;;;;;;;;;;23.35;58.45;100811.81;4977418;28;4889;-68
2023/06/20 01:31:29;;;;;;;;;;;;;;;23.35;58.52;100824.13;4979445;28;4903;-68
2023/06/20 01:34:01;;;;;;;;;;;;;;;23.35;58.42;100827.00;4985635;28;4190;-68
2023/06/20 01:36:32;;;;;;;;;;;;;;;23.33;58.42;100821.16;4981718;28;4144;-69
2023/06/20 01:39:01;;;;;;;;;;;;;;;23.29;58.40;100826.78;4983994;28;4165;-68
2023/06/20 01:41:27;;;;;;;;;;;;;;;23.31;58.32;100812.41;4988238;28;4219;-68
2023/06/20 01:43:56;;;;;;;;;;;;;;;23.30;58.42;100810.94;4996194;28;4210;-68
2023/06/20 01:46:22;;;;;;;;;;;;;;;23.30;58.66;100810.22;4999453;28;4139;-68
2023/06/20 01:48:49;;;;;;;;;;;;;;;23.30;58.53;100813.09;4983185;28;6506;-69
2023/06/20 01:51:15;;;;;;;;;;;;;;;23.28;58.61;100810.88;4985273;28;3958;-69
2023/06/20 01:53:42;;;;;;;;;;;;;;;23.29;58.73;100815.22;4998068;28;4267;-68
2023/06/20 01:56:09;;;;;;;;;;;;;;;23.29;58.44;100817.38;4982969;28;4231;-68
2023/06/20 01:58:35;;;;;;;;;;;;;;;23.27;58.72;100820.94;4991969;28;4028;-68
2023/06/20 02:01:01;;;;;;;;;;;;;;;23.29;58.74;100826.78;5000467;28;4101;-69
2023/06/20 02:03:28;;;;;;;;;;;;;;;23.28;58.75;100833.25;4991311;28;4278;-68
2023/06/20 02:05:58;;;;;;;;;;;;;;;23.26;58.70;100816.59;4979677;28;4178;-68
2023/06/20 02:08:24;;;;;;;;;;;;;;;23.26;58.89;100816.59;4984394;28;4160;-69
2023/06/20 02:10:51;;;;;;;;;;;;;;;23.26;58.89;100816.59;4999034;28;4044;-68
2023/06/20 02:13:19;;;;;;;;;;;;;;;23.26;58.82;100813.69;4991823;28;4311;-69
2023/06/20 02:15:45;;;;;;;;;;;;;;;23.25;58.61;100812.22;4987071;28;4389;-68
2023/06/20 02:18:12;;;;;;;;;;;;;;;23.24;58.56;100813.63;4986086;28;4193;-68
2023/06/20 02:20:39;;;;;;;;;;;;;;;23.24;58.72;100804.97;4986448;28;4118;-68
2023/06/20 02:23:09;;;;;;;;;;;;;;;23.23;58.81;100817.94;4983539;28;4226;-69
2023/06/20 02:25:38;;;;;;;;;;;;;;;23.24;58.82;100813.63;4979412;28;4146;-69
2023/06/20 02:28:05;;;;;;;;;;;;;;;23.23;58.69;100815.03;4981572;28;4238;-68
2023/06/20 02:30:32;;;;;;;;;;;;;;;23.23;58.88;100805.63;4981688;28;4247;-68
2023/06/20 02:32:58;;;;;;;;;;;;;;;23.23;58.72;100817.94;4988243;28;4243;-68
2023/06/20 02:35:25;;;;;;;;;;;;;;;23.21;58.51;100809.19;4997696;28;4530;-68
2023/06/20 02:37:53;;;;;;;;;;;;;;;23.21;58.95;100809.19;4999075;28;4155;-68
2023/06/20 02:40:21;;;;;;;;;;;;;;;23.21;58.66;100809.19;4996250;28;4097;-69
2023/06/20 02:42:48;;;;;;;;;;;;;;;23.21;59.09;100814.97;4984703;28;4034;-68
2023/06/20 02:45:14;;;;;;;;;;;;;;;23.21;59.07;100821.50;4983313;28;4002;-68
2023/06/20 02:47:49;;;;;;;;;;;;;;;23.21;58.98;100817.88;4984687;28;4105;-69
2023/06/20 02:50:18;;;;;;;;;;;;;;;23.20;59.02;100819.25;4982617;28;4173;-68
2023/06/20 02:52:48;;;;;;;;;;;;;;;23.19;59.07;100824.31;4999196;28;4188;-68
2023/06/20 02:55:17;;;;;;;;;;;;;;;23.18;58.91;100819.19;4983217;28;4120;-68
2023/06/20 02:57:44;;;;;;;;;;;;;;;23.19;59.01;100812.75;4995965;28;4163;-68
2023/06/20 03:00:11;;;;;;;;;;;;;;;23.16;59.18;100814.09;4997518;28;4546;-68
2023/06/20 03:02:40;;;;;;;;;;;;;;;23.18;58.97;100825.72;4982965;28;4193;-68
2023/06/20 03:05:08;;;;;;;;;;;;;;;23.19;59.12;100823.56;4980974;28;4130;-68
2023/06/20 03:07:35;;;;;;;;;;;;;;;23.18;59.14;100819.94;4994493;28;4126;-68
2023/06/20 03:10:03;;;;;;;;;;;;;;;23.17;58.98;100824.22;4982336;28;4259;-68
2023/06/20 03:12:30;;;;;;;;;;;;;;;23.18;59.09;100833.63;4981989;28;4162;-69
2023/06/20 03:14:56;;;;;;;;;;;;;;;23.17;58.80;100838.66;4998934;28;4216;-67
2023/06/20 03:17:23;;;;;;;;;;;;;;;23.17;59.13;100832.16;4980989;28;4154;-68
2023/06/20 03:19:49;;;;;;;;;;;;;;;23.17;59.16;100843.72;4998953;28;4150;-68
2023/06/20 03:22:19;;;;;;;;;;;;;;;23.17;58.96;100849.50;4998346;28;4289;-68
2023/06/20 03:24:49;;;;;;;;;;;;;;;23.17;59.12;100843.72;4999162;28;4152;-68
2023/06/20 03:27:15;;;;;;;;;;;;;;;23.15;59.12;100844.38;4985016;28;4167;-68
2023/06/20 03:29:42;;;;;;;;;;;;;;;23.17;59.19;100835.06;4984410;28;4447;-68
2023/06/20 03:32:08;;;;;;;;;;;;;;;23.16;58.93;100842.25;5002717;28;4175;-68
2023/06/20 03:34:35;;;;;;;;;;;;;;;23.16;59.28;100853.81;4988097;28;4055;-68
2023/06/20 03:37:01;;;;;;;;;;;;;;;23.15;59.03;100843.66;4997727;28;6198;-68
2023/06/20 03:39:28;;;;;;;;;;;;;;;23.16;59.17;100850.91;4988722;28;4297;-69
2023/06/20 03:41:55;;;;;;;;;;;;;;;23.16;59.05;100850.91;4992465;28;4190;-68
2023/06/20 03:44:22;;;;;;;;;;;;;;;23.15;59.22;100841.50;4987822;28;4286;-68
2023/06/20 03:46:48;;;;;;;;;;;;;;;23.15;59.30;100843.66;5001970;28;4127;-68
2023/06/20 03:49:14;;;;;;;;;;;;;;;23.14;59.21;100853.72;4982160;28;4119;-68
2023/06/20 03:51:41;;;;;;;;;;;;;;;23.12;59.36;100847.88;4984392;28;4112;-68
2023/06/20 03:54:07;;;;;;;;;;;;;;;23.11;59.21;100857.94;5001692;28;4275;-68
2023/06/20 03:56:34;;;;;;;;;;;;;;;23.12;58.97;100853.66;4998390;28;4147;-68
2023/06/20 03:59:01;;;;;;;;;;;;;;;23.14;58.92;100856.63;4977869;28;4236;-67
2023/06/20 04:01:28;;;;;;;;;;;;;;;23.14;59.14;100854.47;5000704;28;3971;-68
2023/06/20 04:03:54;;;;;;;;;;;;;;;23.15;59.17;100869.66;5000797;28;4209;-67
2023/06/20 04:06:29;;;;;;;;;;;;;;;23.15;59.12;100860.97;4989592;28;4147;-68
2023/06/20 04:08:57;;;;;;;;;;;;;;;23.17;59.10;100861.03;5001149;28;4058;-67
2023/06/20 04:11:24;;;;;;;;;;;;;;;23.15;58.88;100869.66;4982190;28;3990;-68
2023/06/20 04:13:50;;;;;;;;;;;;;;;23.16;58.99;100866.09;4997014;28;4063;-68
2023/06/20 04:16:18;;;;;;;;;;;;;;;23.18;58.72;100874.06;4997343;28;5476;-68
2023/06/20 04:18:44;;;;;;;;;;;;;;;23.19;58.78;100875.56;4987317;28;4193;-68
2023/06/20 04:21:11;;;;;;;;;;;;;;;23.18;59.05;100879.84;4981248;28;4169;-68
2023/06/20 04:23:37;;;;;;;;;;;;;;;23.17;58.92;100887.03;4998037;28;4049;-68
2023/06/20 04:26:07;;;;;;;;;;;;;;;23.18;58.96;100869.06;4984316;28;4132;-68
2023/06/20 04:28:33;;;;;;;;;;;;;;;23.19;58.90;100875.56;4984311;28;4259;-68
2023/06/20 04:31:00;;;;;;;;;;;;;;;23.20;58.98;100879.91;5001806;28;4234;-66
2023/06/20 04:33:27;;;;;;;;;;;;;;;23.26;58.63;100868.59;4996929;28;4238;-68
2023/06/20 04:35:57;;;;;;;;;;;;;;;23.25;58.81;100870.00;5000448;28;3988;-67
2023/06/20 04:38:27;;;;;;;;;;;;;;;23.21;58.80;100864.81;5001896;28;4134;-68
2023/06/20 04:40:55;;;;;;;;;;;;;;;23.20;58.65;100871.25;5000663;28;4242;-68
2023/06/20 04:43:22;;;;;;;;;;;;;;;23.19;58.83;100872.69;4999009;28;5090;-68
2023/06/20 04:45:49;;;;;;;;;;;;;;;23.21;58.90;100875.63;4988207;28;3950;-68
2023/06/20 04:48:15;;;;;;;;;;;;;;;23.20;58.76;100871.25;4984382;28;4188;-68
2023/06/20 04:50:42;;;;;;;;;;;;;;;23.20;58.57;100868.38;4998860;28;4055;-68
2023/06/20 04:53:08;;;;;;;;;;;;;;;23.20;58.81;100871.25;4989141;28;4325;-67
2023/06/20 04:55:38;;;;;;;;;;;;;;;23.21;58.43;100869.84;5002003;28;4139;-68
2023/06/20 04:58:05;;;;;;;;;;;;;;;23.21;58.44;100879.25;4987995;28;4363;-67
2023/06/20 05:00:31;;;;;;;;;;;;;;;23.20;58.62;100877.03;4988313;28;4385;-68
2023/06/20 05:02:58;;;;;;;;;;;;;;;23.21;58.40;100879.25;4999611;28;4229;-68
2023/06/20 05:05:29;;;;;;;;;;;;;;;23.20;58.68;100877.78;4999854;28;4329;-68
2023/06/20 05:07:56;;;;;;;;;;;;;;;23.20;58.70;100877.03;4985181;28;4259;-68
2023/06/20 05:10:23;;;;;;;;;;;;;;;23.19;58.76;100882.06;4983800;28;4051;-68
2023/06/20 05:12:50;;;;;;;;;;;;;;;23.21;58.51;100887.19;4988483;28;4200;-68
2023/06/20 05:15:23;;;;;;;;;;;;;;;23.22;58.50;100885.78;4985886;28;4153;-68
2023/06/20 05:17:50;;;;;;;;;;;;;;;23.21;58.47;100890.81;4985768;28;4020;-68
2023/06/20 05:20:16;;;;;;;;;;;;;;;23.21;58.67;100895.88;4983819;28;4039;-68
2023/06/20 05:22:43;;;;;;;;;;;;;;;23.20;58.64;100892.25;4985221;28;4189;-68
2023/06/20 05:25:09;;;;;;;;;;;;;;;23.19;58.54;100892.91;4984515;28;4091;-68
2023/06/20 05:27:35;;;;;;;;;;;;;;;23.21;58.55;100887.19;4985283;28;4130;-68
2023/06/20 05:30:02;;;;;;;;;;;;;;;23.22;58.46;100900.22;4983639;28;4040;-68
2023/06/20 05:32:28;;;;;;;;;;;;;;;23.22;58.47;100897.34;4988793;28;4375;-68
2023/06/20 05:34:55;;;;;;;;;;;;;;;23.20;58.42;100888.59;4982391;28;4005;-68
2023/06/20 05:37:22;;;;;;;;;;;;;;;23.21;58.42;100901.63;4983349;28;4304;-69
2023/06/20 05:39:48;;;;;;;;;;;;;;;23.19;58.32;100890.75;4983742;28;4133;-68
2023/06/20 05:42:16;;;;;;;;;;;;;;;23.19;58.49;100887.84;4985589;28;4291;-68
2023/06/20 05:44:42;;;;;;;;;;;;;;;23.20;58.63;100906.69;4988714;28;4080;-69
2023/06/20 05:47:12;;;;;;;;;;;;;;;23.21;58.75;100895.88;4985786;28;4270;-68
2023/06/20 05:49:38;;;;;;;;;;;;;;;23.20;58.92;100903.78;4985901;28;4077;-68
2023/06/20 05:52:05;;;;;;;;;;;;;;;23.18;58.96;100908.72;4982898;28;4277;-68
2023/06/20 05:54:32;;;;;;;;;;;;;;;23.17;59.16;100907.28;5000355;28;4193;-67
2023/06/20 05:57:02;;;;;;;;;;;;;;;23.14;58.88;100914.38;4981607;28;4137;-68
2023/06/20 05:59:28;;;;;;;;;;;;;;;23.15;59.15;100904.31;4983796;28;4209;-68
2023/06/20 06:01:54;;;;;;;;;;;;;;;23.19;59.06;100904.44;4985256;28;4144;-67
2023/06/20 06:04:25;;;;;;;;;;;;;;;23.20;58.93;100897.25;4986829;28;5060;-68
2023/06/20 06:06:52;;;;;;;;;;;;;;;23.17;58.91;100904.38;4984038;28;4129;-68
2023/06/20 06:09:19;;;;;;;;;;;;;;;23.16;59.05;100917.34;4983881;28;4060;-68
2023/06/20 06:11:45;;;;;;;;;;;;;;;23.16;59.15;100911.56;4985077;28;4151;-68
2023/06/20 06:14:12;;;;;;;;;;;;;;;23.17;59.28;100910.16;4983538;28;3984;-68
2023/06/20 06:16:38;;;;;;;;;;;;;;;23.15;59.23;100907.94;4984987;28;4039;-67
2023/06/20 06:19:05;;;;;;;;;;;;;;;22.63;61.58;100912.47;4982298;28;4235;-67
2023/06/20 06:21:31;;;;;;;;;;;;;;;22.74;61.73;100902.78;4986472;28;4254;-67
2023/06/20 06:23:58;;;;;;;;;;;;;;;22.69;61.65;100901.16;4979513;28;4097;-73
2023/06/20 06:26:24;;;;;;;;;;;;;;;22.75;61.34;100899.25;4981962;28;4056;-64
2023/06/20 06:28:51;;;;;;;;;;;;;;;22.85;60.70;100904.66;4986253;28;4229;-65
2023/06/20 06:31:20;;;;;;;;;;;;;;;22.77;60.74;100901.47;4985523;28;4169;-64
2023/06/20 06:33:46;;;;;;;;;;;;;;;22.73;61.39;100902.06;4965845;28;4058;-62
2023/06/20 06:36:15;;;;;;;;;;;;;;;22.87;62.90;100898.97;4985440;28;4175;-63
2023/06/20 06:38:48;;;;;;;;;;;;;;;22.94;61.86;100903.53;4998300;28;4075;-64
2023/06/20 06:41:16;;;;;;;;;;;;;;;23.10;61.73;100899.78;4988685;28;4127;-63
2023/06/20 06:43:42;;;;;;;;;;;;;;;22.96;60.37;100903.63;4999510;28;3958;-63
2023/06/20 06:46:09;;;;;;;;;;;;;;;23.08;60.77;100891.06;5001619;28;4143;-63
2023/06/20 06:48:35;;;;;;;;;;;;;;;23.14;60.99;100899.94;4985065;28;4210;-64
2023/06/20 06:51:02;;;;;;;;;;;;;;;23.27;60.24;100898.94;4981521;28;4062;-63
2023/06/20 06:53:28;;;;;;;;;;;;;;;23.25;60.18;100896.00;4987242;28;4030;-63
2023/06/20 06:55:55;;;;;;;;;;;;;;;23.29;59.83;100901.16;4987341;28;5027;-64
2023/06/20 06:58:21;;;;;;;;;;;;;;;23.29;59.74;100901.16;4989123;28;4344;-64
2023/06/20 07:00:48;;;;;;;;;;;;;;;23.29;59.87;100904.06;4989383;28;4196;-63
2023/06/20 07:03:15;;;;;;;;;;;;;;;23.28;60.05;100900.44;4988064;28;4482;-64
2023/06/20 07:05:41;;;;;;;;;;;;;;;23.28;59.69;100899.72;4989807;28;4235;-64
2023/06/20 07:08:08;;;;;;;;;;;;;;;23.25;59.49;100896.00;4984656;28;4227;-64
2023/06/20 07:10:34;;;;;;;;;;;;;;;23.30;59.42;100902.66;4988866;28;4302;-64
2023/06/20 07:13:05;;;;;;;;;;;;;;;23.29;59.30;100896.13;4994000;28;4135;-64
2023/06/20 07:15:32;;;;;;;;;;;;;;;23.32;59.49;100903.47;4988681;28;4232;-64
2023/06/20 07:17:58;;;;;;;;;;;;;;;23.33;59.14;100895.53;4988026;28;4195;-65
2023/06/20 07:20:25;;;;;;;;;;;;;;;23.36;58.90;100900.72;4991415;28;4333;-65
2023/06/20 07:22:51;;;;;;;;;;;;;;;23.40;58.78;100903.75;4987282;28;4204;-65
2023/06/20 07:25:19;;;;;;;;;;;;;;;23.39;59.33;100916.00;4989131;28;4193;-64
2023/06/20 07:27:45;;;;;;;;;;;;;;;23.37;59.39;100913.75;4987099;28;4161;-64
2023/06/20 07:30:11;;;;;;;;;;;;;;;23.40;59.14;100918.19;4993824;28;4157;-64
2023/06/20 07:32:38;;;;;;;;;;;;;;;23.42;59.44;100923.31;4993701;28;4044;-64
2023/06/20 07:35:05;;;;;;;;;;;;;;;23.41;59.56;100924.72;4989381;28;4363;-64
2023/06/20 07:37:31;;;;;;;;;;;;;;;23.44;59.47;100913.97;4990715;28;4232;-64
2023/06/20 07:39:57;;;;;;;;;;;;;;;23.40;59.45;100912.41;4989231;28;4540;-65
2023/06/20 07:42:24;;;;;;;;;;;;;;;23.37;59.43;100904.34;4992137;28;4006;-64
2023/06/20 07:44:50;;;;;;;;;;;;;;;23.43;59.69;100901.66;4993476;28;4388;-64
2023/06/20 07:47:17;;;;;;;;;;;;;;;23.42;59.33;100894.41;4985933;28;4041;-64
2023/06/20 07:49:43;;;;;;;;;;;;;;;23.44;59.67;100893.75;4991603;28;4735;-64
2023/06/20 07:52:10;;;;;;;;;;;;;;;23.45;59.52;100903.88;4990002;28;4129;-65
2023/06/20 07:54:36;;;;;;;;;;;;;;;23.45;59.65;100906.78;5007679;28;4150;-64
2023/06/20 07:57:03;;;;;;;;;;;;;;;23.51;59.97;100910.63;4992140;28;4540;-65
2023/06/20 07:59:29;;;;;;;;;;;;;;;23.51;59.73;100907.72;4987244;28;4212;-65
2023/06/20 08:01:56;;;;;;;;;;;;;;;23.55;59.66;100910.03;4989308;28;4057;-64
2023/06/20 08:04:22;;;;;;;;;;;;;;;23.53;59.70;100907.06;4991806;28;3980;-64
2023/06/20 08:06:49;;;;;;;;;;;;;;;23.53;59.96;100912.84;4985872;28;4349;-64
2023/06/20 08:09:15;;;;;;;;;;;;;;;23.58;59.64;100917.34;4989017;28;4318;-64
2023/06/20 08:11:42;;;;;;;;;;;;;;;23.56;59.95;100911.50;4987579;28;4065;-65
2023/06/20 08:14:08;;;;;;;;;;;;;;;23.55;60.57;100907.13;4987402;28;4055;-64
2023/06/20 08:16:35;;;;;;;;;;;;;;;23.57;60.27;100907.19;4987037;28;4034;-64
2023/06/20 08:19:01;;;;;;;;;;;;;;;23.57;60.45;100916.63;4987515;28;4191;-65
2023/06/20 08:21:28;;;;;;;;;;;;;;;23.60;60.15;100921.03;4988789;28;4000;-64
2023/06/20 08:23:54;;;;;;;;;;;;;;;23.57;60.71;100918.75;4986347;28;4043;-65
2023/06/20 08:26:20;;;;;;;;;;;;;;;23.55;60.86;100933.16;4989929;28;4172;-64
2023/06/20 08:28:47;;;;;;;;;;;;;;;23.58;60.52;100937.59;4987415;28;4108;-65
2023/06/20 08:31:15;;;;;;;;;;;;;;;23.60;60.31;100952.09;4988211;28;4268;-64
2023/06/20 08:33:42;;;;;;;;;;;;;;;23.55;60.33;100979.41;4988482;28;4013;-65
2023/06/20 08:36:11;;;;;;;;;;;;;;;23.60;59.89;100981.75;4988419;28;4179;-64
2023/06/20 08:38:38;;;;;;;;;;;;;;;23.60;60.23;100975.22;4991389;28;4242;-64
2023/06/20 08:41:08;;;;;;;;;;;;;;;23.56;60.28;100987.38;4987708;28;4217;-64
2023/06/20 08:43:34;;;;;;;;;;;;;;;23.60;60.49;100992.59;4988037;28;4296;-64
2023/06/20 08:46:01;;;;;;;;;;;;;;;23.61;60.83;100994.03;4987830;28;4189;-64
2023/06/20 08:48:27;;;;;;;;;;;;;;;23.60;60.99;101001.25;4987599;28;4172;-64
2023/06/20 08:50:54;;;;;;;;;;;;;;;23.49;61.20;101005.19;4988803;28;4989;-64
2023/06/20 08:53:20;;;;;;;;;;;;;;;23.55;60.81;101022.75;4986842;28;4074;-63
2023/06/20 08:55:49;;;;;;;;;;;;;;;23.57;60.50;101023.56;4994427;28;4004;-66
2023/06/20 08:58:15;;;;;;;;;;;;;;;23.47;61.33;101019.56;5002576;28;4188;-66
2023/06/20 09:00:45;;;;;;;;;;;;;;;23.42;61.89;101033.84;4986238;28;4159;-63
2023/06/20 09:03:11;;;;;;;;;;;;;;;23.53;61.49;101040.03;4986098;28;4152;-62
2023/06/20 09:05:42;;;;;;;;;;;;;;;23.61;61.85;101035.25;4990703;28;4132;-62
2023/06/20 09:08:11;;;;;;;;;;;;;;;23.64;60.77;101044.75;4990802;28;4042;-62
2023/06/20 09:10:39;;;;;;;;;;;;;;;23.67;60.98;101051.34;4986475;28;4112;-62
2023/06/20 09:13:06;;;;;;;;;;;;;;;23.67;61.13;101060.75;4990921;28;4014;-62
2023/06/20 09:15:33;;;;;;;;;;;;;;;23.68;60.75;101065.13;5007574;28;4086;-62
2023/06/20 09:18:00;;;;;;;;;;;;;;;23.69;61.26;101063.00;4988116;28;4001;-62
2023/06/20 09:20:27;;;;;;;;;;;;;;;23.67;61.30;101054.97;4988712;28;4073;-62
2023/06/20 09:22:54;;;;;;;;;;;;;;;23.69;61.34;101063.72;4987703;28;4245;-62
2023/06/20 09:25:25;;;;;;;;;;;;;;;23.68;61.62;101068.00;5003583;28;4005;-62
2023/06/20 09:27:51;;;;;;;;;;;;;;;23.68;61.28;101065.13;4987091;28;4029;-61
2023/06/20 09:30:18;;;;;;;;;;;;;;;23.71;61.13;101083.28;4989062;28;4904;-61
2023/06/20 09:32:46;;;;;;;;;;;;;;;23.70;61.57;101099.16;4987931;28;4490;-61
2023/06/20 09:35:13;;;;;;;;;;;;;;;23.63;60.94;101096.03;4984889;28;4525;-61
2023/06/20 09:37:40;;;;;;;;;;;;;;;23.71;61.44;101103.53;4988069;28;4158;-61
2023/06/20 09:40:08;;;;;;;;;;;;;;;23.69;61.48;101106.38;4984776;28;4201;-61
2023/06/20 09:42:34;;;;;;;;;;;;;;;23.71;61.50;101109.31;4999402;28;4098;-61
2023/06/20 09:45:01;;;;;;;;;;;;;;;23.69;61.07;101095.53;4987254;28;4182;-61
2023/06/20 09:47:27;;;;;;;;;;;;;;;23.68;62.04;101079.56;4988474;28;4057;-61
2023/06/20 09:49:57;;;;;;;;;;;;;;;23.64;62.99;101073.66;4985267;28;3906;-62
2023/06/20 09:52:25;;;;;;;;;;;;;;;23.56;63.40;101067.59;4987608;28;3957;-60
2023/06/20 09:54:58;;;;;;;;;;;;;;;23.53;64.69;101063.88;4983527;28;4018;-61
2023/06/20 09:57:31;;;;;;;;;;;;;;;23.52;66.05;101061.66;4997798;28;3994;-61
2023/06/20 09:59:57;;;;;;;;;;;;;;;23.47;66.59;101054.25;4998438;28;4230;-61
2023/06/20 10:02:24;;;;;;;;;;;;;;;23.45;66.34;101051.28;4985018;28;4026;-60
2023/06/20 10:04:52;;;;;;;;;;;;;;;23.46;66.85;101052.78;4984651;28;4294;-62
2023/06/20 10:07:18;;;;;;;;;;;;;;;23.50;67.35;101052.91;5000935;28;4218;-60
2023/06/20 10:09:45;;;;;;;;;;;;;;;23.50;67.53;101047.13;5000831;28;4022;-60
2023/06/20 10:12:11;;;;;;;;;;;;;;;23.50;67.66;101047.88;4983960;28;4284;-60
2023/06/20 10:14:38;;;;;;;;;;;;;;;23.52;67.38;101044.31;4984750;28;3991;-61
2023/06/20 10:17:08;;;;;;;;;;;;;;;23.52;67.49;101038.53;4983545;28;4140;-61
2023/06/20 10:19:47;;;;;;;;;;;;;;;23.50;67.23;101047.13;4985754;28;4125;-61
2023/06/20 10:22:14;;;;;;;;;;;;;;;23.50;67.29;101041.34;4984984;28;4182;-61
2023/06/20 10:24:41;;;;;;;;;;;;;;;23.51;67.51;101037.06;4986050;28;4544;-61
2023/06/20 10:27:07;;;;;;;;;;;;;;;23.50;67.47;101035.56;4983282;28;5147;-61
2023/06/20 10:29:40;;;;;;;;;;;;;;;23.52;67.67;101035.63;4983749;28;4345;-61
2023/06/20 10:32:07;;;;;;;;;;;;;;;23.53;67.76;101034.25;4985466;28;4179;-61
2023/06/20 10:34:38;;;;;;;;;;;;;;;23.54;67.65;101024.16;4984075;28;4070;-61
2023/06/20 10:37:24;;;;;;;;;;;;;;;23.54;67.80;101018.38;4982410;28;4377;-61
2023/06/20 10:39:54;;;;;;;;;;;;;;;23.47;68.35;101016.66;4972026;28;4343;-61
2023/06/20 10:42:30;;;;;;;;;;;;;;;23.53;67.74;101017.63;4983417;28;4902;-60
2023/06/20 10:45:15;;;;;;;;;;;;;;;23.56;67.84;101027.13;4982375;28;4168;-61
2023/06/20 10:47:43;;;;;;;;;;;;;;;23.56;68.34;101021.34;4984526;28;4311;-61
2023/06/20 10:50:13;;;;;;;;;;;;;;;23.55;68.21;101019.88;4984190;28;4082;-60
2023/06/20 10:52:42;;;;;;;;;;;;;;;23.56;67.35;101022.06;4999588;28;3999;-63
2023/06/20 10:55:09;;;;;;;;;;;;;;;23.62;67.11;101018.66;4983239;28;4116;-63
2023/06/20 10:57:35;;;;;;;;;;;;;;;23.60;66.91;101007.03;4985544;28;3992;-63
2023/06/20 11:00:09;;;;;;;;;;;;;;;23.59;67.25;101011.31;4984464;28;4211;-64
2023/06/20 11:02:35;;;;;;;;;;;;;;;23.64;67.18;101012.97;4986487;28;4209;-64
2023/06/20 11:05:04;;;;;;;;;;;;;;;23.64;66.81;101004.28;4984473;28;4312;-63
2023/06/20 11:07:30;;;;;;;;;;;;;;;23.62;67.36;101007.84;4982262;28;3958;-63
2023/06/20 11:10:16;;;;;;;;;;;;;;;23.56;68.12;101010.50;4982591;28;4240;-64
2023/06/20 11:12:42;;;;;;;;;;;;;;;23.52;68.59;100995.16;4983688;28;5280;-64
2023/06/20 11:15:19;;;;;;;;;;;;;;;23.52;69.31;100981.44;4982375;28;4501;-64
2023/06/20 11:17:45;;;;;;;;;;;;;;;23.40;69.02;100981.75;4987896;28;4116;-62
2023/06/20 11:20:12;;;;;;;;;;;;;;;23.34;70.05;100975.78;4988099;28;4464;-62
2023/06/20 11:22:38;;;;;;;;;;;;;;;23.35;70.72;100968.59;4982855;28;4336;-62
2023/06/20 11:25:07;;;;;;;;;;;;;;;23.33;70.75;100982.97;4984803;28;4455;-62
2023/06/20 11:27:33;;;;;;;;;;;;;;;23.33;70.63;100985.84;4982195;28;4144;-62
2023/06/20 11:29:59;;;;;;;;;;;;;;;23.40;70.69;100981.03;4984650;28;4993;-65
2023/06/20 11:32:26;;;;;;;;;;;;;;;23.46;69.79;100983.41;4982700;28;4247;-62
2023/06/20 11:34:56;;;;;;;;;;;;;;;23.50;69.74;100971.97;4998874;28;3989;-62
2023/06/20 11:37:23;;;;;;;;;;;;;;;23.51;70.20;100968.44;4984272;28;4013;-62
2023/06/20 11:39:49;;;;;;;;;;;;;;;23.54;70.02;100972.84;4987262;28;4180;-63
2023/06/20 11:42:16;;;;;;;;;;;;;;;23.54;70.23;100955.50;4991944;28;4476;-62
2023/06/20 11:44:42;;;;;;;;;;;;;;;23.55;69.98;100948.34;4988690;28;4293;-63
2023/06/20 11:47:09;;;;;;;;;;;;;;;23.59;69.81;100950.63;4985912;28;4132;-63
2023/06/20 11:49:38;;;;;;;;;;;;;;;23.60;69.64;100952.09;4987675;28;4000;-62
2023/06/20 11:52:05;;;;;;;;;;;;;;;23.61;69.50;100953.56;4990970;28;4261;-63
2023/06/20 11:54:45;;;;;;;;;;;;;;;23.62;69.14;100952.19;4992878;28;4223;-62
2023/06/20 11:57:20;;;;;;;;;;;;;;;23.62;68.93;100947.13;4987563;28;4162;-62
2023/06/20 11:59:49;;;;;;;;;;;;;;;23.64;68.54;100940.69;4986931;28;4142;-62
2023/06/20 12:02:15;;;;;;;;;;;;;;;23.65;67.76;100945.06;4987812;28;4024;-62
2023/06/20 12:04:43;;;;;;;;;;;;;;;23.65;67.09;100947.94;4993501;28;4249;-62
2023/06/20 12:07:09;;;;;;;;;;;;;;;23.66;66.85;100943.63;4988644;28;3995;-62
2023/06/20 12:09:40;;;;;;;;;;;;;;;23.66;66.32;100937.84;4988933;28;4296;-65
2023/06/20 12:12:07;;;;;;;;;;;;;;;23.68;66.21;100937.19;4993069;28;4239;-65
2023/06/20 12:14:37;;;;;;;;;;;;;;;23.68;65.93;100929.25;4992031;28;3992;-63
2023/06/20 12:17:04;;;;;;;;;;;;;;;23.69;65.91;100930.00;4990724;28;5421;-63
2023/06/20 12:19:31;;;;;;;;;;;;;;;23.70;65.99;100937.25;4995732;28;3988;-64
2023/06/20 12:21:59;;;;;;;;;;;;;;;23.71;65.53;100927.91;4991711;28;4036;-63
2023/06/20 12:24:27;;;;;;;;;;;;;;;23.71;65.80;100922.13;4988916;28;4208;-63
2023/06/20 12:26:54;;;;;;;;;;;;;;;23.71;65.61;100927.91;4993290;28;4100;-63
2023/06/20 12:29:20;;;;;;;;;;;;;;;23.72;65.67;100923.59;4987026;28;3934;-63
2023/06/20 12:31:47;;;;;;;;;;;;;;;23.73;65.47;100925.09;4997576;28;4142;-63
2023/06/20 12:34:14;;;;;;;;;;;;;;;23.73;65.39;100925.09;4990392;28;4739;-63
2023/06/20 12:36:42;;;;;;;;;;;;;;;23.73;65.18;100925.09;4994822;28;4127;-63
2023/06/20 12:39:08;;;;;;;;;;;;;;;23.74;65.38;100920.81;4990918;28;4122;-62
2023/06/20 12:41:35;;;;;;;;;;;;;;;23.74;65.30;100920.81;4994200;28;4167;-62
2023/06/20 12:44:02;;;;;;;;;;;;;;;23.76;65.26;100923.03;4990675;28;4217;-63
2023/06/20 12:46:28;;;;;;;;;;;;;;;23.76;65.03;100926.66;4988696;28;4073;-63
2023/06/20 12:48:55;;;;;;;;;;;;;;;23.77;64.88;100927.41;5002160;28;4036;-63
2023/06/20 12:51:22;;;;;;;;;;;;;;;23.77;64.95;100927.41;5002279;28;5025;-63